Aérodrome :
LOGIN :

S'inscrire | Disclaimer

   EN    FR    IT 

 










Légende :    VFR   VFR Marginal   IFR   IFR Intensif   IFR Très Intensif
Visi : 
Plafond : 
>= 8 km
>= 3000ft
5 à 8 km
1000 à 3000 ft
1500m à 5 km
500 à 1000 ft
800 à 1500m
200 à 500 ft
< 800m
< 200 ft
Symboles :   Orages  Brouillard  Fortes neiges  Fortes précipitations  Vent > 20 kt
SIGMETs :   Divers  Orages  Givrage  Turbulence  Onde Orograph.  Cendres Volcan.







- Altitude de l'aérodrome : 13 ft
- Code IATA : OST


EBOS - Oostend bruges Int.

DERNIER METAR :
  • 291720Z 12008KT 9999 FEW035 14/01 Q1015 NOSIG

METARs EXPIRÉS :
  • 291650Z 10008KT 9999 FEW030 14/01 Q1015 NOSIG
  • 291620Z 11008KT 080V140 9999 FEW030 14/01 Q1015 NOSIG
  • 291550Z 07011KT 9999 FEW030 15/02 Q1015 NOSIG
  • 291520Z 08009KT 060V120 9999 FEW028 14/03 Q1016 NOSIG
  • 291450Z 05010KT 9999 FEW028 14/06 Q1016 NOSIG

TAF TAF EBOS
Valide du 29 à 18h jusqu'au 01 à 00h UTC


291720Z 2918/3024 11010KT 9999 FEW040
PROB40
TEMPO 3013/3016 17013KT
PROB30
TEMPO 3023/3024 4000 RA SHRA
Pas de NOTAMs connus pour ce terrain.



MET'MAP, la Météo Aéronautique d'un coup d'oeil ! - Copyright ORBIFLY Décembre 2007 - Disclaimer

ORBIFLY MET'MAP TEAM :

Programmation & Développement : Alexandra Zaïnal
Conception & Développement : Baudouin d'Aumeries
Co-Programmation & Développement : Marc-Olivier Méhu
Soutien technique & logistique : Manuel Goepfert

Contact : metmap@orbifly.com




SOURCES & CREDITS :

   NOAA